Topsail Beach, North Carolina
Current Conditions -  °F | °C
As of 1:56 PM on Friday 28 Nov 2014 (Local Time) from KNCA Reporting Station
Clear Clear  
Wind Chill: 41°   Ceiling: Unl
Heat Index: 46°   Visibility: 10mi
Dew Point: 20°   Wind: 10mph
Humidity: 35%   Direction: 310°NW
Pressure: 30.28"   Gusts: NA
Location:  34.4895°N, 77.514°W
Report Text: KNCA 281856Z AUTO 31009KT 10SM CLR 08/M07 A3028 RMK AO2 SLP257 T00781067
Loading
Personal Weather Stations






























Interactive Weather Map New forecast layout! Learn more

10-Day Weather Forecast

Advertisements
Track Severe Weather on mobile